Time;durP1;ratioP1;P1;durP2;ratioP2;P2;SDS_P1;SDS_P2;PMS_P1;PMS_P2;Temp;Humidity;BMP_temperature;BMP_pressure;BME280_temperature;BME280_humidity;BME280_pressure;Samples;Min_cycle;Max_cycle;Signal;HPM_P1;HPM_P2
2021/11/29 00:01:46;;;;;;;1.98;1.02;;;;;;;1.80;100.00;99620.44;6325688;28;20059;-83
2021/11/29 00:04:48;;;;;;;2.80;2.58;;;;;;;1.84;100.00;99620.25;6326405;28;20048;-82
2021/11/29 00:07:49;;;;;;;4.00;1.73;;;;;;;1.80;100.00;99621.28;6326658;28;20048;-82
2021/11/29 00:10:51;;;;;;;1.67;1.50;;;;;;;1.84;100.00;99620.25;6326714;28;20044;-84
2021/11/29 00:13:53;;;;;;;1.75;1.50;;;;;;;1.88;100.00;99628.78;6326457;28;20490;-83
2021/11/29 00:16:55;;;;;;;3.10;1.92;;;;;;;1.89;100.00;99626.13;6326137;28;20059;-83
2021/11/29 00:19:56;;;;;;;4.50;2.58;;;;;;;1.88;100.00;99631.38;6301317;28;20063;-82
2021/11/29 00:22:58;;;;;;;2.72;1.50;;;;;;;1.86;100.00;99638.34;6321106;28;20052;-82
2021/11/29 00:26:00;;;;;;;1.27;1.17;;;;;;;1.83;100.00;99634.13;6325433;28;20452;-82
2021/11/29 00:29:03;;;;;;;1.05;0.95;;;;;;;1.77;100.00;99637.78;6325603;28;20052;-82
2021/11/29 00:32:05;;;;;;;2.30;1.25;;;;;;;1.78;100.00;99638.63;6323230;28;20048;-82
2021/11/29 00:35:07;;;;;;;2.60;1.40;;;;;;;1.75;100.00;99636.97;6325563;28;20051;-81
2021/11/29 00:38:10;;;;;;;3.03;2.22;;;;;;;1.68;100.00;99637.22;6325395;28;20048;-79
2021/11/29 00:41:12;;;;;;;2.72;1.70;;;;;;;1.69;100.00;99638.94;6314058;28;20432;-81
2021/11/29 00:44:15;;;;;;;1.77;1.60;;;;;;;1.70;100.00;99648.41;6300196;28;20488;-80
2021/11/29 00:47:16;;;;;;;7.05;1.90;;;;;;;1.70;100.00;99649.25;6323543;28;20102;-81
2021/11/29 00:50:19;;;;;;;1.92;1.63;;;;;;;1.69;100.00;99651.91;6326099;28;20566;-82
2021/11/29 00:53:21;;;;;;;3.08;2.10;;;;;;;1.76;100.00;99656.78;6325605;28;20044;-82
2021/11/29 00:56:22;;;;;;;3.63;1.48;;;;;;;1.72;100.00;99655.19;6325622;28;20598;-83
2021/11/29 00:59:25;;;;;;;2.53;2.28;;;;;;;1.72;100.00;99660.38;6325178;28;20052;-83
2021/11/29 01:02:27;;;;;;;2.50;1.77;;;;;;;1.78;100.00;99656.75;6325514;28;20503;-84
2021/11/29 01:05:29;;;;;;;3.63;1.40;;;;;;;1.78;100.00;99667.13;6324976;28;20044;-83
2021/11/29 01:08:31;;;;;;;3.00;1.45;;;;;;;1.77;100.00;99671.47;6324967;28;20137;-84
2021/11/29 01:11:32;;;;;;;1.27;1.17;;;;;;;1.77;100.00;99675.75;6321643;28;20047;-83
2021/11/29 01:14:35;;;;;;;2.38;1.42;;;;;;;1.79;100.00;99671.38;6323211;28;20040;-85
2021/11/29 01:17:37;;;;;;;1.65;0.80;;;;;;;1.82;100.00;99666.13;6324703;28;20040;-84
2021/11/29 01:20:42;;;;;;;1.13;1.02;;;;;;;1.83;100.00;99675.56;6324453;28;20040;-84
2021/11/29 01:23:43;;;;;;;0.77;0.77;;;;;;;1.86;100.00;99678.03;6324440;28;20048;-84
2021/11/29 01:26:44;;;;;;;2.25;1.75;;;;;;;1.84;100.00;99672.06;6325111;28;20044;-86
2021/11/29 01:29:47;;;;;;;1.67;1.27;;;;;;;1.87;100.00;99673.72;6324835;28;20044;-85
2021/11/29 01:32:48;;;;;;;1.83;1.25;;;;;;;1.83;100.00;99678.16;6324803;28;20055;-85
2021/11/29 01:35:50;;;;;;;2.13;1.40;;;;;;;1.84;100.00;99679.84;6324863;28;20050;-86
2021/11/29 01:38:51;;;;;;;2.03;1.48;;;;;;;1.77;100.00;99688.72;6324400;28;20079;-83
2021/11/29 01:41:53;;;;;;;1.95;1.58;;;;;;;1.75;100.00;99681.00;6316245;28;20044;-86
2021/11/29 01:44:57;;;;;;;2.47;1.92;;;;;;;1.76;100.00;99690.47;6298773;28;20048;-85
2021/11/29 01:47:58;;;;;;;1.77;1.58;;;;;;;1.73;100.00;99689.75;6299418;28;20052;-85
2021/11/29 01:51:00;;;;;;;2.45;1.90;;;;;;;1.77;100.00;99699.94;6298993;28;20059;-86
2021/11/29 01:54:02;;;;;;;3.10;2.10;;;;;;;1.80;100.00;99688.63;6299171;28;20514;-85
2021/11/29 01:57:04;;;;;;;2.70;1.80;;;;;;;1.79;100.00;99686.94;6299131;28;20059;-85
2021/11/29 02:00:10;;;;;;;3.08;1.98;;;;;;;1.75;100.00;99699.13;6298805;28;20055;-86
2021/11/29 02:03:13;;;;;;;3.55;1.98;;;;;;;1.78;100.00;99698.19;6297569;28;20048;-84
2021/11/29 02:06:15;;;;;;;3.40;1.88;;;;;;;1.72;100.00;99699.22;6298090;28;20048;-85
2021/11/29 02:09:16;;;;;;;3.28;1.92;;;;;;;1.76;100.00;99699.97;6298229;28;20045;-84
2021/11/29 02:12:18;;;;;;;2.72;1.90;;;;;;;1.79;100.00;99697.28;6305069;28;20070;-83
2021/11/29 02:15:21;;;;;;;2.45;1.85;;;;;;;1.76;100.00;99711.19;6323459;28;20052;-84
2021/11/29 02:18:24;;;;;;;2.67;1.73;;;;;;;1.74;100.00;99713.00;6322933;28;20063;-84
2021/11/29 02:21:30;;;;;;;3.05;1.95;;;;;;;1.72;100.00;99708.75;6321221;28;20044;-85
2021/11/29 02:24:32;;;;;;;2.53;1.70;;;;;;;1.70;100.00;99716.56;6323006;28;20085;-84
2021/11/29 02:27:35;;;;;;;2.58;1.80;;;;;;;1.65;100.00;99715.03;6322997;28;20062;-84
2021/11/29 02:30:36;;;;;;;1.90;1.52;;;;;;;1.66;100.00;99714.97;6323301;28;20475;-85
2021/11/29 02:33:38;;;;;;;6.40;2.58;;;;;;;1.70;100.00;99710.56;6323272;28;20419;-85
2021/11/29 02:36:41;;;;;;;3.85;2.13;;;;;;;1.70;100.00;99720.91;6324854;28;20420;-84
2021/11/29 02:39:43;;;;;;;2.75;1.90;;;;;;;1.73;100.00;99729.44;6322728;28;20059;-84
2021/11/29 02:42:44;;;;;;;3.30;2.20;;;;;;;1.67;100.00;99724.44;6322035;28;20142;-85
2021/11/29 02:45:46;;;;;;;4.95;2.47;;;;;;;1.72;100.00;99727.72;6323285;28;20052;-84
2021/11/29 02:48:49;;;;;;;4.75;2.10;;;;;;;1.69;100.00;99732.19;6323409;28;20052;-85
2021/11/29 02:51:55;;;;;;;3.80;2.20;;;;;;;1.72;100.00;99739.81;6322572;28;20048;-86
2021/11/29 02:54:56;;;;;;;3.92;2.10;;;;;;;1.65;100.00;99746.13;6326278;28;20044;-85
2021/11/29 02:57:57;;;;;;;4.45;2.90;;;;;;;1.66;100.00;99743.47;6323288;28;20517;-85
2021/11/29 03:00:59;;;;;;;2.95;1.77;;;;;;;1.66;100.00;99740.88;6323676;28;20040;-84
2021/11/29 03:04:00;;;;;;;2.25;1.27;;;;;;;1.71;100.00;99751.09;6322662;28;20071;-85
2021/11/29 03:07:04;;;;;;;2.50;1.55;;;;;;;1.67;100.00;99741.72;6322685;28;20051;-85
2021/11/29 03:10:07;;;;;;;1.83;1.20;;;;;;;1.62;100.00;99747.06;6322908;28;20051;-85
2021/11/29 03:13:08;;;;;;;1.40;1.05;;;;;;;1.66;100.00;99747.81;6322772;28;20503;-85
2021/11/29 03:16:10;;;;;;;1.33;1.10;;;;;;;1.66;100.00;99750.41;6325877;28;20052;-85
2021/11/29 03:19:11;;;;;;;1.95;1.42;;;;;;;1.62;100.00;99744.47;6328324;28;20052;-85
2021/11/29 03:22:14;;;;;;;2.33;1.50;;;;;;;1.58;100.00;99748.03;6304103;28;20045;-84
2021/11/29 03:25:16;;;;;;;2.67;1.48;;;;;;;1.55;100.00;99744.72;6302693;28;20049;-84
2021/11/29 03:28:17;;;;;;;1.73;1.55;;;;;;;1.56;100.00;99744.66;6302748;28;20051;-84
2021/11/29 03:31:18;;;;;;;3.63;1.23;;;;;;;1.53;100.00;99760.28;6302117;28;20252;-85
2021/11/29 03:34:21;;;;;;;1.65;1.20;;;;;;;1.56;100.00;99749.00;6302274;28;20048;-86
2021/11/29 03:37:24;;;;;;;3.78;2.05;;;;;;;1.53;100.00;99752.53;6302255;28;20041;-86
2021/11/29 03:40:26;;;;;;;1.88;1.40;;;;;;;1.56;100.00;99761.97;6302517;28;20055;-87
2021/11/29 03:43:28;;;;;;;1.35;1.25;;;;;;;1.62;100.00;99761.75;6325052;28;20071;-85
2021/11/29 03:46:29;;;;;;;4.18;1.52;;;;;;;1.63;100.00;99763.44;6327689;28;20059;-86
2021/11/29 03:49:31;;;;;;;1.55;1.27;;;;;;;1.59;100.00;99761.84;6327419;28;20067;-86
2021/11/29 03:52:34;;;;;;;1.23;0.95;;;;;;;1.63;100.00;99760.84;6327277;28;20044;-86
2021/11/29 03:55:35;;;;;;;0.90;0.90;;;;;;;1.60;100.00;99769.56;6327405;28;20048;-86
2021/11/29 03:58:37;;;;;;;1.17;1.05;;;;;;;1.63;100.00;99777.22;6327109;28;20054;-86
2021/11/29 04:01:38;;;;;;;1.35;1.10;;;;;;;1.67;100.00;99785.75;6327174;28;20044;-86
2021/11/29 04:04:40;;;;;;;2.25;1.58;;;;;;;1.61;100.00;99785.94;6326977;28;20063;-86
2021/11/29 04:07:43;;;;;;;2.90;1.65;;;;;;;1.60;100.00;99790.28;6327058;28;20142;-86
2021/11/29 04:10:45;;;;;;;3.05;1.13;;;;;;;1.65;100.00;99796.16;6325641;28;20423;-86
2021/11/29 04:13:46;;;;;;;1.67;1.02;;;;;;;1.66;100.00;99802.19;6301319;28;20407;-86
2021/11/29 04:16:48;;;;;;;2.22;1.50;;;;;;;1.62;100.00;99805.75;6301857;28;20044;-86
2021/11/29 04:19:49;;;;;;;1.02;0.93;;;;;;;1.65;100.00;99805.69;6301131;28;20071;-85
2021/11/29 04:22:52;;;;;;;1.15;1.08;;;;;;;1.69;100.00;99815.88;6315276;28;20044;-86
2021/11/29 04:26:02;;;;;;;1.17;1.02;;;;;;;1.76;100.00;99811.34;6325128;28;20044;-85
2021/11/29 04:29:08;;;;;;;1.38;1.02;;;;;;;1.78;100.00;99812.16;6300746;28;20126;-86
2021/11/29 04:32:10;;;;;;;1.20;1.02;;;;;;;1.72;100.00;99817.50;6301085;28;20075;-86
2021/11/29 04:35:12;;;;;;;1.50;1.27;;;;;;;1.75;100.00;99818.28;6325086;28;20499;-86
2021/11/29 04:38:15;;;;;;;1.90;1.13;;;;;;;1.80;100.00;99823.31;6326220;28;20395;-86
2021/11/29 04:41:16;;;;;;;2.60;1.48;;;;;;;1.72;100.00;99817.50;6326789;28;20483;-85
2021/11/29 04:44:17;;;;;;;2.15;1.58;;;;;;;1.77;100.00;99828.56;6326228;28;20111;-86
2021/11/29 04:47:19;;;;;;;1.45;1.13;;;;;;;1.82;100.00;99828.41;6311557;28;20048;-85
2021/11/29 04:50:20;;;;;;;2.90;1.77;;;;;;;1.76;100.00;99832.91;6299938;28;20388;-85
2021/11/29 04:53:23;;;;;;;2.25;1.55;;;;;;;1.75;100.00;99831.22;6300759;28;20047;-85
2021/11/29 04:56:25;;;;;;;4.57;2.03;;;;;;;1.71;100.00;99841.72;6313276;28;20435;-85
2021/11/29 04:59:26;;;;;;;4.20;2.03;;;;;;;1.72;100.00;99843.41;6325824;28;20479;-85
2021/11/29 05:02:39;;;;;;;2.42;1.73;;;;;;;1.74;100.00;99841.63;6311457;28;20062;-85
2021/11/29 05:05:40;;;;;;;2.53;1.83;;;;;;;1.78;100.00;99845.81;6300863;28;20052;-86
2021/11/29 05:08:43;;;;;;;5.65;2.35;;;;;;;1.79;100.00;99839.75;6300806;28;20051;-85
2021/11/29 05:12:21;;;;;;;3.83;1.98;;;;;;;1.82;100.00;99847.44;6300302;28;20063;-86
2021/11/29 05:15:23;;;;;;;2.17;1.70;;;;;;;1.86;100.00;99850.75;6302256;28;20048;-84
2021/11/29 05:18:24;;;;;;;4.00;1.65;;;;;;;1.80;100.00;99850.94;6303005;28;20052;-85
2021/11/29 05:21:25;;;;;;;2.33;2.13;;;;;;;1.83;100.00;99861.22;6300580;28;20052;-85
2021/11/29 05:24:28;;;;;;;3.38;2.25;;;;;;;1.80;100.00;99869.09;6300502;28;20045;-85
2021/11/29 05:27:32;;;;;;;8.73;1.92;;;;;;;1.78;100.00;99879.50;6301207;28;20052;-85
2021/11/29 05:30:38;;;;;;;4.60;2.25;;;;;;;1.77;100.00;99876.06;6299964;28;20052;-84
2021/11/29 05:33:39;;;;;;;2.90;1.38;;;;;;;1.80;100.00;99890.66;6299983;28;20388;-84
2021/11/29 05:36:41;;;;;;;1.58;1.48;;;;;;;1.83;100.00;99889.72;6299850;28;20415;-85
2021/11/29 05:39:44;;;;;;;3.05;1.88;;;;;;;1.85;100.00;99895.69;6300009;28;20419;-82
2021/11/29 05:42:48;;;;;;;4.18;2.45;;;;;;;1.85;100.00;99893.09;6299603;28;20056;-82
2021/11/29 05:45:49;;;;;;;3.90;2.17;;;;;;;1.88;100.00;99893.84;6299662;28;20407;-82
2021/11/29 05:48:52;;;;;;;6.43;2.22;;;;;;;1.89;100.00;99905.91;6299349;28;20055;-84
2021/11/29 05:51:55;;;;;;;2.30;1.50;;;;;;;1.89;100.00;99918.00;6299917;28;20395;-83
2021/11/29 05:54:58;;;;;;;4.93;2.08;;;;;;;1.89;100.00;99921.44;6300267;28;20663;-84
2021/11/29 05:58:00;;;;;;;3.75;1.77;;;;;;;1.90;100.00;99925.72;6299672;28;20052;-84
2021/11/29 06:01:01;;;;;;;4.32;2.47;;;;;;;1.90;100.00;99933.50;6300313;28;20044;-84
2021/11/29 06:04:03;;;;;;;7.47;2.60;;;;;;;1.84;100.00;99938.03;6300153;28;20051;-84
2021/11/29 06:07:05;;;;;;;5.57;2.90;;;;;;;1.85;100.00;99948.34;6300870;28;20072;-83
2021/11/29 06:10:09;;;;;;;2.60;2.15;;;;;;;1.88;100.00;99943.06;6299816;28;20048;-84
2021/11/29 06:13:11;;;;;;;3.90;2.33;;;;;;;1.87;100.00;99949.16;6299794;28;20650;-83
2021/11/29 06:16:13;;;;;;;5.65;3.30;;;;;;;1.89;100.00;99962.91;6300537;28;20052;-84
2021/11/29 06:19:14;;;;;;;4.25;2.17;;;;;;;1.91;100.00;99963.72;6299714;28;20048;-84
2021/11/29 06:22:16;;;;;;;4.35;2.42;;;;;;;1.90;100.00;99966.34;6307218;28;20388;-84
2021/11/29 06:25:20;;;;;;;5.85;2.58;;;;;;;1.89;100.00;99972.41;6333414;28;20133;-84
2021/11/29 06:28:21;;;;;;;5.07;2.70;;;;;;;1.88;100.00;99979.34;6298993;28;20052;-83
2021/11/29 06:31:24;;;;;;;5.72;3.03;;;;;;;1.91;100.00;99975.81;6298772;28;20045;-84
2021/11/29 06:34:27;;;;;;;5.65;2.28;;;;;;;1.86;100.00;99986.28;6298534;28;20052;-83
2021/11/29 06:37:29;;;;;;;6.03;2.72;;;;;;;1.87;100.00;99988.00;6298574;28;20055;-84
2021/11/29 06:40:33;;;;;;;5.63;2.47;;;;;;;1.81;100.00;99987.34;6298258;28;20522;-82
2021/11/29 06:43:34;;;;;;;4.57;2.92;;;;;;;1.83;100.00;99996.78;6298762;28;20048;-83
2021/11/29 06:46:36;;;;;;;8.13;3.78;;;;;;;1.85;100.00;100002.75;6298593;28;20101;-83
2021/11/29 06:49:37;;;;;;;3.35;1.70;;;;;;;1.87;100.00;100005.31;6297761;28;20082;-84
2021/11/29 06:52:39;;;;;;;5.40;2.72;;;;;;;1.83;100.00;100012.31;6298071;28;20480;-84
2021/11/29 06:55:44;;;;;;;10.13;3.42;;;;;;;1.82;100.00;100018.38;6298565;28;20059;-83
2021/11/29 06:58:45;;;;;;;3.67;1.92;;;;;;;1.85;100.00;100022.63;6298236;28;20052;-83
2021/11/29 07:01:47;;;;;;;5.95;3.00;;;;;;;1.86;100.00;100032.06;6315831;28;20051;-82
2021/11/29 07:04:48;;;;;;;11.30;3.60;;;;;;;1.82;100.00;100033.06;6322976;28;20048;-84
2021/11/29 07:07:51;;;;;;;7.97;3.10;;;;;;;1.82;100.00;100038.25;6318820;28;20052;-83
2021/11/29 07:10:54;;;;;;;5.25;3.63;;;;;;;1.81;100.00;100044.31;6315442;28;20048;-84
2021/11/29 07:13:55;;;;;;;6.47;3.58;;;;;;;1.81;100.00;100060.72;6323387;28;20134;-83
2021/11/29 07:16:57;;;;;;;4.78;2.75;;;;;;;1.85;100.00;100062.31;6323073;28;20059;-83
2021/11/29 07:19:58;;;;;;;8.43;3.40;;;;;;;1.81;100.00;100060.72;6322727;28;20115;-84
2021/11/29 07:23:00;;;;;;;8.23;4.82;;;;;;;1.78;100.00;100071.19;6323105;28;20044;-83
2021/11/29 07:26:03;;;;;;;7.70;3.03;;;;;;;1.81;100.00;100076.25;6322859;28;20495;-84
2021/11/29 07:29:04;;;;;;;5.03;2.35;;;;;;;1.87;100.00;100083.88;6322942;28;20495;-84
2021/11/29 07:32:06;;;;;;;5.05;3.00;;;;;;;1.90;100.00;100085.50;6322820;28;20483;-84
2021/11/29 07:35:09;;;;;;;5.30;3.08;;;;;;;1.88;100.00;100088.16;6322955;28;20044;-83
2021/11/29 07:38:11;;;;;;;5.47;3.25;;;;;;;1.89;100.00;100096.78;6319189;28;20215;-83
2021/11/29 07:41:13;;;;;;;7.40;4.05;;;;;;;1.89;100.00;100099.34;6298559;28;20049;-84
2021/11/29 07:44:15;;;;;;;11.20;3.92;;;;;;;1.88;100.00;100110.63;6298216;28;20049;-84
2021/11/29 07:47:17;;;;;;;5.10;3.05;;;;;;;1.87;100.00;100107.19;6298003;28;20057;-80
2021/11/29 07:50:19;;;;;;;8.63;3.88;;;;;;;1.91;100.00;100113.13;6315140;28;20044;-80
2021/11/29 07:53:21;;;;;;;5.88;3.17;;;;;;;1.91;100.00;100119.16;6309680;28;20415;-80
2021/11/29 07:56:24;;;;;;;6.95;3.92;;;;;;;1.86;100.00;100121.00;6322257;28;20094;-81
2021/11/29 07:59:25;;;;;;;5.10;3.53;;;;;;;1.91;100.00;100126.94;6322553;28;20419;-80
2021/11/29 08:02:27;;;;;;;7.53;4.50;;;;;;;1.97;100.00;100134.53;6323944;28;20052;-83
2021/11/29 08:05:30;;;;;;;6.05;2.83;;;;;;;1.96;100.00;100143.19;6327061;28;20557;-81
2021/11/29 08:08:31;;;;;;;7.25;3.08;;;;;;;1.99;100.00;100139.66;6314458;28;20048;-81
2021/11/29 08:11:35;;;;;;;8.63;4.43;;;;;;;1.96;100.00;100142.34;6301557;28;20499;-82
2021/11/29 08:14:37;;;;;;;7.20;3.30;;;;;;;2.01;100.00;100143.06;6301972;28;20140;-82
2021/11/29 08:17:38;;;;;;;4.95;3.05;;;;;;;2.06;100.00;100145.53;6301635;28;20049;-81
2021/11/29 08:20:40;;;;;;;7.57;3.30;;;;;;;2.11;100.00;100146.25;6302026;28;20059;-81
2021/11/29 08:23:41;;;;;;;10.57;4.18;;;;;;;2.06;100.00;100148.13;6341540;28;20052;-81
2021/11/29 08:26:44;;;;;;;7.93;3.97;;;;;;;2.03;100.00;100152.47;6352220;28;20051;-83
2021/11/29 08:29:46;;;;;;;9.23;4.43;;;;;;;2.09;100.00;100155.78;6339374;28;20048;-82
2021/11/29 08:32:47;;;;;;;8.00;4.50;;;;;;;2.10;100.00;100153.19;6327044;28;20056;-81
2021/11/29 08:35:49;;;;;;;9.80;4.50;;;;;;;2.13;100.00;100158.25;6324944;28;20059;-82
2021/11/29 08:38:50;;;;;;;11.70;5.35;;;;;;;2.18;100.00;100160.72;6312229;28;20059;-82
2021/11/29 08:41:53;;;;;;;9.93;4.40;;;;;;;2.18;100.00;100169.38;6325384;28;20043;-81
2021/11/29 08:44:55;;;;;;;13.00;4.15;;;;;;;2.21;100.00;100178.78;6326215;28;20047;-82
2021/11/29 08:47:57;;;;;;;17.10;5.13;;;;;;;2.21;100.00;100179.63;6326672;28;20055;-81
2021/11/29 08:50:58;;;;;;;9.50;3.95;;;;;;;2.27;100.00;100178.59;6326798;28;20129;-82
2021/11/29 08:53:59;;;;;;;9.05;4.18;;;;;;;2.32;100.00;100174.16;6327349;28;20051;-86
2021/11/29 08:57:02;;;;;;;12.20;4.97;;;;;;;2.37;100.00;100169.69;6328951;28;20048;-84
2021/11/29 09:00:08;;;;;;;10.18;4.47;;;;;;;2.31;100.00;100179.38;6334879;28;20055;-84
2021/11/29 09:03:11;;;;;;;9.75;3.83;;;;;;;2.23;100.00;100179.59;6328399;28;20047;-84
2021/11/29 09:06:12;;;;;;;9.35;3.60;;;;;;;2.17;100.00;100190.97;6328283;28;20052;-86
2021/11/29 09:09:14;;;;;;;13.85;5.05;;;;;;;2.19;100.00;100199.56;6326412;28;20040;-88
2021/11/29 09:12:17;;;;;;;9.25;3.90;;;;;;;2.25;100.00;100195.94;6328988;28;20495;-87
2021/11/29 09:15:20;;;;;;;9.68;4.20;;;;;;;2.34;100.00;100197.44;6327289;28;20120;-86
2021/11/29 09:18:22;;;;;;;5.93;3.65;;;;;;;2.31;100.00;100202.69;6314225;28;20051;-83
2021/11/29 09:21:25;;;;;;;11.63;4.82;;;;;;;2.33;100.00;100217.34;6322366;28;20071;-84
2021/11/29 09:24:33;;;;;;;8.77;4.35;;;;;;;2.32;100.00;100218.22;6331850;28;20052;-85
2021/11/29 09:27:37;;;;;;;9.10;4.22;;;;;;;2.42;100.00;100214.47;6349763;28;20055;-87
2021/11/29 09:30:39;;;;;;;10.98;4.07;;;;;;;2.43;100.00;100226.53;6325101;28;20072;-85
2021/11/29 09:33:41;;;;;;;8.38;4.32;;;;;;;2.49;100.00;100228.09;6326681;28;20051;-85
2021/11/29 09:36:44;;;;;;;15.98;4.20;;;;;;;2.57;100.00;100235.69;6326770;28;20048;-86
2021/11/29 09:39:46;;;;;;;9.70;4.32;;;;;;;2.54;100.00;100245.25;6327001;28;20487;-84
2021/11/29 09:42:50;;;;;;;11.77;4.68;;;;;;;2.62;100.00;100255.41;6325041;28;20047;-81
2021/11/29 09:45:53;;;;;;;7.70;3.65;;;;;;;2.60;100.00;100264.13;6314490;28;20056;-80
2021/11/29 09:48:55;;;;;;;8.27;3.67;;;;;;;2.57;100.00;100259.88;6309457;28;20051;-79
2021/11/29 09:51:58;;;;;;;8.70;3.65;;;;;;;2.61;100.00;100263.22;6308473;28;20055;-80
2021/11/29 09:54:59;;;;;;;9.55;3.85;;;;;;;2.68;100.00;100262.16;6311112;28;20044;-79
2021/11/29 09:58:04;;;;;;;6.88;2.75;;;;;;;2.72;100.00;100269.78;6315926;28;20117;-81
2021/11/29 10:01:08;;;;;;;9.88;4.03;;;;;;;2.59;100.00;100267.59;6310016;28;20495;-79
2021/11/29 10:04:11;;;;;;;8.70;4.22;;;;;;;2.53;100.00;100272.06;6312322;28;20040;-80
2021/11/29 10:07:12;;;;;;;9.77;4.32;;;;;;;2.52;100.00;100270.38;6310017;28;20051;-79
2021/11/29 10:10:17;;;;;;;8.13;3.65;;;;;;;2.48;100.00;100265.31;6309235;28;20043;-79
2021/11/29 10:13:21;;;;;;;6.32;3.30;;;;;;;2.54;100.00;100272.91;6307421;28;20049;-78
2021/11/29 10:16:35;;;;;;;7.22;4.25;;;;;;;2.52;100.00;100270.38;6307672;28;20049;-81
2021/11/29 10:19:38;;;;;;;7.75;3.60;;;;;;;2.53;100.00;100279.84;6308508;28;20039;-80
2021/11/29 10:22:41;;;;;;;6.72;3.15;;;;;;;2.54;100.00;100278.09;6317887;28;20040;-80
2021/11/29 10:25:44;;;;;;;7.60;3.05;;;;;;;2.61;100.00;100283.97;6315514;28;20044;-81
2021/11/29 10:28:49;;;;;;;6.38;3.17;;;;;;;2.63;100.00;100284.78;6319990;28;20051;-81
2021/11/29 10:31:53;;;;;;;2.70;1.50;;;;;;;2.65;100.00;100285.59;6315150;28;20051;-81
2021/11/29 10:34:56;;;;;;;3.38;1.95;;;;;;;2.65;100.00;100289.03;6310074;28;20159;-79
2021/11/29 10:37:58;;;;;;;3.25;1.63;;;;;;;2.59;100.00;100290.94;6312204;28;20048;-80
2021/11/29 10:41:00;;;;;;;3.40;1.75;;;;;;;2.62;100.00;100290.88;6312169;28;20431;-81
2021/11/29 10:44:07;;;;;;;3.15;1.25;;;;;;;2.61;100.00;100287.44;6317905;28;20125;-80
2021/11/29 10:47:11;;;;;;;5.20;2.17;;;;;;;2.61;100.00;100294.34;6319445;28;20063;-80
2021/11/29 10:50:12;;;;;;;4.35;2.22;;;;;;;2.67;100.00;100295.03;6322981;28;20044;-81
2021/11/29 10:53:14;;;;;;;4.53;2.08;;;;;;;2.71;100.00;100300.97;6322552;28;20125;-82
2021/11/29 10:56:15;;;;;;;4.30;2.10;;;;;;;2.74;100.00;100293.97;6323506;28;20044;-83
2021/11/29 10:59:22;;;;;;;2.78;1.48;;;;;;;2.76;100.00;100293.91;6322028;28;20051;-82
2021/11/29 11:02:26;;;;;;;3.42;1.73;;;;;;;2.73;100.00;100297.47;6322094;28;20048;-82
2021/11/29 11:05:28;;;;;;;3.08;1.70;;;;;;;2.77;100.00;100299.09;6322379;28;20051;-82
2021/11/29 11:08:34;;;;;;;2.85;1.67;;;;;;;2.85;100.00;100293.66;6322660;28;20059;-82
2021/11/29 11:11:38;;;;;;;7.13;2.80;;;;;;;2.82;100.00;100298.06;6322295;28;20490;-79
2021/11/29 11:14:45;;;;;;;7.38;2.50;;;;;;;2.92;100.00;100308.16;6322290;28;20067;-80
2021/11/29 11:17:52;;;;;;;5.03;1.70;;;;;;;3.00;100.00;100307.94;6323224;28;20075;-81
2021/11/29 11:21:13;;;;;;;2.75;1.58;;;;;;;3.07;100.00;100306.00;6321954;28;20081;-81
2021/11/29 11:24:22;;;;;;;4.82;1.80;;;;;;;3.15;100.00;100309.22;6321656;28;20044;-80
2021/11/29 11:27:26;;;;;;;2.70;1.48;;;;;;;3.26;100.00;100313.19;6320044;28;20055;-81
2021/11/29 11:30:31;;;;;;;3.55;2.00;;;;;;;3.32;100.00;100304.38;6321119;28;20059;-80
2021/11/29 11:33:55;;;;;;;3.17;1.88;;;;;;;3.38;100.00;100308.53;6310067;28;20055;-80
2021/11/29 11:36:57;;;;;;;6.18;2.40;;;;;;;3.40;100.00;100296.34;6303502;28;20130;-82
2021/11/29 11:40:00;;;;;;;7.18;2.28;;;;;;;3.46;100.00;100298.75;6327243;28;20048;-80
2021/11/29 11:43:04;;;;;;;5.78;1.83;;;;;;;3.41;100.00;100304.09;6326188;28;20055;-81
2021/11/29 11:46:07;;;;;;;3.65;1.90;;;;;;;3.25;100.00;100302.84;6326281;28;20142;-81
2021/11/29 11:49:08;;;;;;;4.03;1.88;;;;;;;3.12;100.00;100298.94;6326521;28;20044;-82
2021/11/29 11:52:13;;;;;;;5.43;1.88;;;;;;;3.19;100.00;100311.69;6326207;28;20058;-77
2021/11/29 11:55:21;;;;;;;1.92;1.20;;;;;;;3.49;100.00;100319.44;6325145;28;20044;-81
2021/11/29 11:58:27;;;;;;;4.88;1.98;;;;;;;3.60;100.00;100316.50;6324309;28;20546;-81
2021/11/29 12:01:33;;;;;;;5.55;2.63;;;;;;;3.72;100.00;100318.69;6326173;28;20048;-79
2021/11/29 12:04:35;;;;;;;4.43;2.03;;;;;;;3.74;100.00;100320.38;6326389;28;20048;-81
2021/11/29 12:07:36;;;;;;;8.82;3.13;;;;;;;3.73;100.00;100323.88;6325968;28;20189;-81
2021/11/29 12:10:41;;;;;;;5.07;2.53;;;;;;;3.92;100.00;100328.47;6307173;28;20063;-82
2021/11/29 12:13:45;;;;;;;6.57;1.75;;;;;;;3.93;100.00;100323.22;6320877;28;20043;-76
2021/11/29 12:16:50;;;;;;;7.47;1.80;;;;;;;3.87;100.00;100332.97;6325589;28;20063;-82
2021/11/29 12:19:51;;;;;;;3.58;1.92;;;;;;;3.95;100.00;100318.84;6325562;28;20052;-86
2021/11/29 12:22:53;;;;;;;4.63;2.63;;;;;;;3.92;100.00;100334.50;6325394;28;20484;-85
2021/11/29 12:25:54;;;;;;;3.58;1.88;;;;;;;3.95;100.00;100323.16;6325539;28;20060;-85
2021/11/29 12:28:56;;;;;;;2.90;1.35;;;;;;;3.93;100.00;100330.16;6325449;28;20048;-86
2021/11/29 12:32:10;;;;;;;5.95;2.45;;;;;;;3.87;100.00;100336.41;6325880;28;20483;-87
2021/11/29 12:35:12;;;;;;;3.83;1.98;;;;;;;3.90;100.00;100335.44;6325626;28;20493;-85
2021/11/29 12:38:16;;;;;;;5.90;2.70;;;;;;;3.87;100.00;100332.97;6326217;28;20048;-88
2021/11/29 12:41:35;;;;;;;3.22;1.60;;;;;;;3.83;100.00;100342.63;6325465;28;20158;-87
2021/11/29 12:44:46;;;;;;;4.85;2.33;;;;;;;3.65;100.00;100351.00;6314712;28;20044;-87
2021/11/29 12:47:52;;;;;;;5.10;2.38;;;;;;;3.62;100.00;100356.28;6301177;28;20059;-85
2021/11/29 12:50:56;;;;;;;4.10;2.33;;;;;;;3.59;100.00;100354.63;6300649;28;20175;-85
2021/11/29 12:53:57;;;;;;;3.97;1.88;;;;;;;3.61;100.00;100368.41;6311222;28;20740;-83
2021/11/29 12:57:28;;;;;;;3.97;2.13;;;;;;;3.65;100.00;100366.56;6308090;28;20044;-82
2021/11/29 13:00:29;;;;;;;5.30;1.98;;;;;;;3.63;100.00;100374.41;6323262;28;20052;-82
2021/11/29 13:03:34;;;;;;;4.63;1.60;;;;;;;3.62;100.00;100375.31;6325122;28;20047;-86
2021/11/29 13:06:53;;;;;;;5.78;2.33;;;;;;;3.60;100.00;100376.28;6319025;28;20043;-85
2021/11/29 13:09:54;;;;;;;3.97;2.10;;;;;;;3.62;100.00;100382.25;6299278;28;20048;-86
2021/11/29 13:13:23;;;;;;;4.00;2.20;;;;;;;3.59;100.00;100375.41;6300007;28;20064;-87
2021/11/29 13:16:39;;;;;;;5.82;2.90;;;;;;;3.60;100.00;100387.50;6299842;28;20049;-84
2021/11/29 13:19:44;;;;;;;5.88;2.78;;;;;;;3.66;100.00;100384.72;6299502;28;20060;-83
2021/11/29 13:22:45;;;;;;;5.57;2.40;;;;;;;3.64;100.00;100385.66;6299342;28;20076;-84
2021/11/29 13:25:47;;;;;;;4.13;2.10;;;;;;;3.63;100.00;100386.53;6299734;28;20416;-81
2021/11/29 13:28:52;;;;;;;9.18;2.28;;;;;;;3.65;100.00;100388.22;6304813;28;20418;-80
2021/11/29 13:31:55;;;;;;;3.90;1.90;;;;;;;3.63;100.00;100389.16;6323589;28;20419;-82
2021/11/29 13:35:02;;;;;;;5.15;2.17;;;;;;;3.58;100.00;100391.03;6325246;28;20055;-82
2021/11/29 13:38:06;;;;;;;6.47;2.78;;;;;;;3.54;100.00;100391.16;6314150;28;20055;-83
2021/11/29 13:41:16;;;;;;;2.75;1.80;;;;;;;3.58;100.00;100396.22;6324359;28;20059;-83
2021/11/29 13:44:20;;;;;;;4.57;2.15;;;;;;;3.56;100.00;100391.94;6323461;28;20178;-85
2021/11/29 13:47:28;;;;;;;4.95;2.13;;;;;;;3.59;100.00;100400.53;6322959;28;20052;-83
2021/11/29 13:50:32;;;;;;;4.68;2.33;;;;;;;3.58;100.00;100404.03;6324523;28;20413;-84
2021/11/29 13:53:36;;;;;;;7.20;2.30;;;;;;;3.59;100.00;100409.19;6325173;28;20048;-83
2021/11/29 13:56:38;;;;;;;6.03;1.50;;;;;;;3.55;100.00;100411.03;6325725;28;20550;-85
2021/11/29 13:59:39;;;;;;;3.53;2.45;;;;;;;3.53;100.00;100418.00;6309086;28;20173;-82
2021/11/29 14:02:42;;;;;;;7.43;2.67;;;;;;;3.56;100.00;100422.28;6322528;28;20055;-81
2021/11/29 14:05:48;;;;;;;8.77;2.90;;;;;;;3.58;100.00;100424.81;6323011;28;20414;-82
2021/11/29 14:08:50;;;;;;;5.22;2.50;;;;;;;3.55;100.00;100420.56;6322828;28;20113;-79
2021/11/29 14:11:55;;;;;;;6.20;2.85;;;;;;;3.55;100.00;100430.97;6323103;28;20055;-83
2021/11/29 14:15:07;;;;;;;3.97;2.08;;;;;;;3.55;100.00;100441.34;6323970;28;20056;-82
2021/11/29 14:18:08;;;;;;;2.85;2.00;;;;;;;3.51;100.00;100442.34;6323375;28;20059;-84